sensor_id;sensor_type;location;lat;lon;timestamp;pressure;altitude;pressure_sealevel;temperature;humidity
3796;BME280;1913;50.660;7.834;2023-02-14T00:00:40;98985.19;;;2.79;100.00
3796;BME280;1913;50.660;7.834;2023-02-14T00:03:05;98995.16;;;2.72;100.00
3796;BME280;1913;50.660;7.834;2023-02-14T00:05:31;98986.63;;;2.83;100.00
3796;BME280;1913;50.660;7.834;2023-02-14T00:07:56;98985.66;;;2.84;100.00
3796;BME280;1913;50.660;7.834;2023-02-14T00:10:22;98980.38;;;2.85;100.00
3796;BME280;1913;50.660;7.834;2023-02-14T00:12:47;98982.78;;;2.76;100.00
3796;BME280;1913;50.660;7.834;2023-02-14T00:15:13;98982.41;;;2.69;100.00
3796;BME280;1913;50.660;7.834;2023-02-14T00:17:52;98978.69;;;2.60;100.00
3796;BME280;1913;50.660;7.834;2023-02-14T00:20:19;98967.31;;;2.50;100.00
3796;BME280;1913;50.660;7.834;2023-02-14T00:22:45;98977.78;;;2.49;100.00
3796;BME280;1913;50.660;7.834;2023-02-14T00:25:11;98974.56;;;2.45;100.00
3796;BME280;1913;50.660;7.834;2023-02-14T00:27:40;98978.16;;;2.31;100.00
3796;BME280;1913;50.660;7.834;2023-02-14T00:30:07;98982.19;;;2.23;100.00
3796;BME280;1913;50.660;7.834;2023-02-14T00:32:33;98974.53;;;2.08;100.00
3796;BME280;1913;50.660;7.834;2023-02-14T00:34:58;98974.72;;;2.05;100.00
3796;BME280;1913;50.660;7.834;2023-02-14T00:37:24;98970.56;;;2.03;100.00
3796;BME280;1913;50.660;7.834;2023-02-14T00:39:50;98977.84;;;1.98;100.00
3796;BME280;1913;50.660;7.834;2023-02-14T00:42:15;98977.13;;;1.96;100.00
3796;BME280;1913;50.660;7.834;2023-02-14T00:44:41;98976.28;;;1.95;100.00
3796;BME280;1913;50.660;7.834;2023-02-14T00:47:07;98983.25;;;1.95;100.00
3796;BME280;1913;50.660;7.834;2023-02-14T00:49:32;98980.75;;;1.93;100.00
3796;BME280;1913;50.660;7.834;2023-02-14T00:51:58;98981.69;;;1.79;100.00
3796;BME280;1913;50.660;7.834;2023-02-14T00:54:23;98978.88;;;1.70;100.00
3796;BME280;1913;50.660;7.834;2023-02-14T00:56:49;98973.19;;;1.77;100.00
3796;BME280;1913;50.660;7.834;2023-02-14T00:59:14;98975.03;;;1.88;100.00
3796;BME280;1913;50.660;7.834;2023-02-14T01:01:40;98969.78;;;1.89;100.00
3796;BME280;1913;50.660;7.834;2023-02-14T01:04:05;98974.00;;;1.90;100.00
3796;BME280;1913;50.660;7.834;2023-02-14T01:06:32;98973.28;;;1.88;100.00
3796;BME280;1913;50.660;7.834;2023-02-14T01:08:57;98981.69;;;1.92;100.00
3796;BME280;1913;50.660;7.834;2023-02-14T01:11:23;98984.38;;;1.90;100.00
3796;BME280;1913;50.660;7.834;2023-02-14T01:13:50;98986.16;;;1.90;100.00
3796;BME280;1913;50.660;7.834;2023-02-14T01:16:21;98977.22;;;1.94;100.00
3796;BME280;1913;50.660;7.834;2023-02-14T01:18:48;98978.88;;;1.95;100.00
3796;BME280;1913;50.660;7.834;2023-02-14T01:23:40;98977.97;;;1.83;100.00
3796;BME280;1913;50.660;7.834;2023-02-14T01:26:06;98979.09;;;1.79;100.00
3796;BME280;1913;50.660;7.834;2023-02-14T01:28:33;98979.63;;;1.72;100.00
3796;BME280;1913;50.660;7.834;2023-02-14T01:31:13;98963.03;;;1.61;100.00
3796;BME280;1913;50.660;7.834;2023-02-14T01:33:40;98963.53;;;1.66;100.00
3796;BME280;1913;50.660;7.834;2023-02-14T01:36:06;98973.59;;;1.71;100.00
3796;BME280;1913;50.660;7.834;2023-02-14T01:38:32;98968.19;;;1.74;100.00
3796;BME280;1913;50.660;7.834;2023-02-14T01:40:58;98972.25;;;1.78;100.00
3796;BME280;1913;50.660;7.834;2023-02-14T01:43:24;98975.25;;;1.72;100.00
3796;BME280;1913;50.660;7.834;2023-02-14T01:45:49;98969.13;;;1.73;100.00
3796;BME280;1913;50.660;7.834;2023-02-14T01:48:18;98971.66;;;1.75;100.00
3796;BME280;1913;50.660;7.834;2023-02-14T01:50:46;98967.38;;;1.86;100.00
3796;BME280;1913;50.660;7.834;2023-02-14T01:53:21;98968.72;;;1.92;100.00
3796;BME280;1913;50.660;7.834;2023-02-14T01:55:52;98969.56;;;1.92;100.00
3796;BME280;1913;50.660;7.834;2023-02-14T01:58:23;98975.25;;;1.98;100.00
3796;BME280;1913;50.660;7.834;2023-02-14T02:00:49;98973.09;;;2.04;100.00
3796;BME280;1913;50.660;7.834;2023-02-14T02:03:24;98965.19;;;2.06;100.00
3796;BME280;1913;50.660;7.834;2023-02-14T02:05:54;98963.53;;;2.05;100.00
3796;BME280;1913;50.660;7.834;2023-02-14T02:08:20;98959.16;;;2.05;100.00
3796;BME280;1913;50.660;7.834;2023-02-14T02:10:46;98969.47;;;2.07;100.00
3796;BME280;1913;50.660;7.834;2023-02-14T02:13:18;98963.53;;;2.18;100.00
3796;BME280;1913;50.660;7.834;2023-02-14T02:16:04;98953.31;;;2.27;100.00
3796;BME280;1913;50.660;7.834;2023-02-14T02:18:45;98953.44;;;2.38;100.00
3796;BME280;1913;50.660;7.834;2023-02-14T02:38:40;98933.03;;;2.82;100.00
3796;BME280;1913;50.660;7.834;2023-02-14T02:44:10;98934.13;;;2.91;100.00
3796;BME280;1913;50.660;7.834;2023-02-14T02:55:19;98936.34;;;3.08;100.00
3796;BME280;1913;50.660;7.834;2023-02-14T02:57:48;98932.91;;;3.07;100.00
3796;BME280;1913;50.660;7.834;2023-02-14T03:00:16;98937.06;;;3.10;100.00
3796;BME280;1913;50.660;7.834;2023-02-14T03:02:47;98931.50;;;3.15;100.00
3796;BME280;1913;50.660;7.834;2023-02-14T03:05:33;98934.84;;;3.17;100.00
3796;BME280;1913;50.660;7.834;2023-02-14T03:07:59;98936.94;;;3.11;100.00
3796;BME280;1913;50.660;7.834;2023-02-14T03:10:27;98939.53;;;3.11;100.00
3796;BME280;1913;50.660;7.834;2023-02-14T03:15:45;98924.91;;;3.10;100.00
3796;BME280;1913;50.660;7.834;2023-02-14T03:37:31;98913.13;;;2.94;100.00
3796;BME280;1913;50.660;7.834;2023-02-14T03:42:37;98917.88;;;3.00;100.00
3796;BME280;1913;50.660;7.834;2023-02-14T03:45:08;98917.28;;;2.96;100.00
3796;BME280;1913;50.660;7.834;2023-02-14T03:47:35;98907.59;;;2.98;100.00
3796;BME280;1913;50.660;7.834;2023-02-14T03:50:10;98918.31;;;2.94;100.00
3796;BME280;1913;50.660;7.834;2023-02-14T03:52:39;98905.34;;;2.94;100.00
3796;BME280;1913;50.660;7.834;2023-02-14T03:55:07;98905.72;;;3.00;100.00
3796;BME280;1913;50.660;7.834;2023-02-14T03:57:36;98905.34;;;2.94;100.00
3796;BME280;1913;50.660;7.834;2023-02-14T04:00:04;98902.53;;;2.97;100.00
3796;BME280;1913;50.660;7.834;2023-02-14T04:02:34;98904.31;;;2.96;100.00
3796;BME280;1913;50.660;7.834;2023-02-14T04:05:02;98899.72;;;3.00;100.00
3796;BME280;1913;50.660;7.834;2023-02-14T04:07:29;98907.50;;;3.00;100.00
3796;BME280;1913;50.660;7.834;2023-02-14T04:09:55;98903.22;;;2.99;100.00
3796;BME280;1913;50.660;7.834;2023-02-14T04:12:21;98895.94;;;3.04;100.00
3796;BME280;1913;50.660;7.834;2023-02-14T04:14:46;98901.22;;;3.02;100.00
3796;BME280;1913;50.660;7.834;2023-02-14T04:17:12;98898.75;;;3.01;100.00
3796;BME280;1913;50.660;7.834;2023-02-14T04:19:56;98904.09;;;2.99;100.00
3796;BME280;1913;50.660;7.834;2023-02-14T04:22:21;98908.81;;;3.05;100.00
3796;BME280;1913;50.660;7.834;2023-02-14T04:24:47;98905.94;;;2.97;100.00
3796;BME280;1913;50.660;7.834;2023-02-14T04:27:12;98903.97;;;3.01;100.00
3796;BME280;1913;50.660;7.834;2023-02-14T04:29:48;98905.56;;;2.91;100.00
3796;BME280;1913;50.660;7.834;2023-02-14T04:32:16;98904.53;;;2.93;100.00
3796;BME280;1913;50.660;7.834;2023-02-14T04:34:42;98900.59;;;2.87;100.00
3796;BME280;1913;50.660;7.834;2023-02-14T04:37:08;98894.13;;;2.93;100.00
3796;BME280;1913;50.660;7.834;2023-02-14T04:39:34;98897.56;;;2.94;100.00
3796;BME280;1913;50.660;7.834;2023-02-14T04:42:00;98891.09;;;2.99;100.00
3796;BME280;1913;50.660;7.834;2023-02-14T04:44:25;98899.09;;;2.96;100.00
3796;BME280;1913;50.660;7.834;2023-02-14T04:46:51;98892.22;;;2.95;100.00
3796;BME280;1913;50.660;7.834;2023-02-14T04:49:16;98896.13;;;2.90;100.00
3796;BME280;1913;50.660;7.834;2023-02-14T04:51:42;98898.81;;;2.88;100.00
3796;BME280;1913;50.660;7.834;2023-02-14T04:54:07;98902.25;;;2.88;100.00
3796;BME280;1913;50.660;7.834;2023-02-14T04:56:33;98902.50;;;2.85;100.00
3796;BME280;1913;50.660;7.834;2023-02-14T04:58:58;98897.72;;;2.79;100.00
3796;BME280;1913;50.660;7.834;2023-02-14T05:01:24;98894.09;;;2.82;100.00
3796;BME280;1913;50.660;7.834;2023-02-14T05:03:49;98899.50;;;2.79;100.00
3796;BME280;1913;50.660;7.834;2023-02-14T05:06:14;98896.56;;;2.83;100.00
3796;BME280;1913;50.660;7.834;2023-02-14T05:08:40;98884.75;;;2.79;100.00
3796;BME280;1913;50.660;7.834;2023-02-14T05:11:05;98889.34;;;2.76;100.00
3796;BME280;1913;50.660;7.834;2023-02-14T05:13:31;98887.78;;;2.73;100.00
3796;BME280;1913;50.660;7.834;2023-02-14T05:15:57;98887.34;;;2.79;100.00
3796;BME280;1913;50.660;7.834;2023-02-14T05:18:22;98887.09;;;2.71;100.00
3796;BME280;1913;50.660;7.834;2023-02-14T05:20:49;98883.75;;;2.69;100.00
3796;BME280;1913;50.660;7.834;2023-02-14T05:23:15;98887.31;;;2.68;100.00
3796;BME280;1913;50.660;7.834;2023-02-14T05:25:41;98892.72;;;2.65;100.00
3796;BME280;1913;50.660;7.834;2023-02-14T05:28:07;98900.72;;;2.62;100.00
3796;BME280;1913;50.660;7.834;2023-02-14T05:30:33;98896.06;;;2.54;100.00
3796;BME280;1913;50.660;7.834;2023-02-14T05:32:59;98890.16;;;2.52;100.00
3796;BME280;1913;50.660;7.834;2023-02-14T05:35:25;98895.69;;;2.48;100.00
3796;BME280;1913;50.660;7.834;2023-02-14T05:37:51;98907.22;;;2.44;100.00
3796;BME280;1913;50.660;7.834;2023-02-14T05:40:16;98888.66;;;2.37;100.00
3796;BME280;1913;50.660;7.834;2023-02-14T05:42:42;98888.66;;;2.37;100.00
3796;BME280;1913;50.660;7.834;2023-02-14T05:45:08;98884.63;;;2.33;100.00
3796;BME280;1913;50.660;7.834;2023-02-14T05:47:34;98893.44;;;2.30;100.00
3796;BME280;1913;50.660;7.834;2023-02-14T05:49:59;98894.81;;;2.23;100.00
3796;BME280;1913;50.660;7.834;2023-02-14T05:52:25;98894.59;;;2.26;100.00
3796;BME280;1913;50.660;7.834;2023-02-14T05:54:50;98899.09;;;2.24;100.00
3796;BME280;1913;50.660;7.834;2023-02-14T05:57:16;98889.84;;;2.20;100.00
3796;BME280;1913;50.660;7.834;2023-02-14T05:59:41;98892.56;;;2.19;100.00
3796;BME280;1913;50.660;7.834;2023-02-14T06:02:07;98891.22;;;2.13;100.00
3796;BME280;1913;50.660;7.834;2023-02-14T06:04:32;98890.59;;;2.09;100.00
3796;BME280;1913;50.660;7.834;2023-02-14T06:06:58;98892.06;;;2.13;100.00
3796;BME280;1913;50.660;7.834;2023-02-14T06:09:23;98892.28;;;2.10;100.00
3796;BME280;1913;50.660;7.834;2023-02-14T06:11:49;98896.00;;;2.06;100.00
3796;BME280;1913;50.660;7.834;2023-02-14T06:14:14;98897.47;;;2.10;100.00
3796;BME280;1913;50.660;7.834;2023-02-14T06:16:40;98892.56;;;2.06;100.00
3796;BME280;1913;50.660;7.834;2023-02-14T06:19:05;98903.16;;;2.03;100.00
3796;BME280;1913;50.660;7.834;2023-02-14T06:21:31;98899.31;;;1.96;100.00
3796;BME280;1913;50.660;7.834;2023-02-14T06:23:56;98901.84;;;1.97;100.00
3796;BME280;1913;50.660;7.834;2023-02-14T06:26:22;98903.91;;;1.92;100.00
3796;BME280;1913;50.660;7.834;2023-02-14T06:28:57;98906.28;;;1.95;100.00
3796;BME280;1913;50.660;7.834;2023-02-14T06:31:23;98907.34;;;1.92;100.00
3796;BME280;1913;50.660;7.834;2023-02-14T06:33:52;98903.28;;;1.88;100.00
3796;BME280;1913;50.660;7.834;2023-02-14T06:36:18;98904.00;;;1.90;100.00
3796;BME280;1913;50.660;7.834;2023-02-14T06:38:43;98900.47;;;1.91;100.00
3796;BME280;1913;50.660;7.834;2023-02-14T06:41:10;98900.28;;;1.95;100.00
3796;BME280;1913;50.660;7.834;2023-02-14T06:43:36;98901.31;;;1.92;100.00
3796;BME280;1913;50.660;7.834;2023-02-14T06:46:02;98901.44;;;1.90;100.00
3796;BME280;1913;50.660;7.834;2023-02-14T06:48:28;98909.53;;;1.86;100.00
3796;BME280;1913;50.660;7.834;2023-02-14T06:50:54;98907.75;;;1.86;100.00
3796;BME280;1913;50.660;7.834;2023-02-14T06:53:20;98901.84;;;1.84;100.00
3796;BME280;1913;50.660;7.834;2023-02-14T06:55:46;98898.41;;;1.84;100.00
3796;BME280;1913;50.660;7.834;2023-02-14T06:58:12;98897.91;;;1.79;100.00
3796;BME280;1913;50.660;7.834;2023-02-14T07:00:38;98905.50;;;1.82;100.00
3796;BME280;1913;50.660;7.834;2023-02-14T07:03:05;98900.50;;;1.79;100.00
3796;BME280;1913;50.660;7.834;2023-02-14T07:05:31;98900.06;;;1.85;100.00
3796;BME280;1913;50.660;7.834;2023-02-14T07:07:57;98903.50;;;1.85;100.00
3796;BME280;1913;50.660;7.834;2023-02-14T07:10:23;98901.09;;;1.95;100.00
3796;BME280;1913;50.660;7.834;2023-02-14T07:12:48;98901.38;;;2.16;100.00
3796;BME280;1913;50.660;7.834;2023-02-14T07:15:14;98901.84;;;2.34;100.00
3796;BME280;1913;50.660;7.834;2023-02-14T07:17:39;98896.56;;;2.59;100.00
3796;BME280;1913;50.660;7.834;2023-02-14T07:20:06;98884.97;;;2.76;100.00
3796;BME280;1913;50.660;7.834;2023-02-14T07:22:32;98893.09;;;2.96;100.00
3796;BME280;1913;50.660;7.834;2023-02-14T07:24:58;98890.53;;;3.07;100.00
3796;BME280;1913;50.660;7.834;2023-02-14T07:27:24;98891.28;;;3.20;100.00
3796;BME280;1913;50.660;7.834;2023-02-14T07:29:49;98888.47;;;3.34;100.00
3796;BME280;1913;50.660;7.834;2023-02-14T07:32:15;98893.56;;;3.47;100.00
3796;BME280;1913;50.660;7.834;2023-02-14T07:34:40;98897.50;;;3.53;100.00
3796;BME280;1913;50.660;7.834;2023-02-14T07:37:06;98888.00;;;3.52;100.00
3796;BME280;1913;50.660;7.834;2023-02-14T07:39:31;98886.97;;;3.66;100.00
3796;BME280;1913;50.660;7.834;2023-02-14T07:41:57;98882.84;;;3.74;100.00
3796;BME280;1913;50.660;7.834;2023-02-14T07:44:22;98883.09;;;3.82;100.00
3796;BME280;1913;50.660;7.834;2023-02-14T07:46:48;98882.13;;;3.83;100.00
3796;BME280;1913;50.660;7.834;2023-02-14T07:49:13;98880.84;;;3.89;100.00
3796;BME280;1913;50.660;7.834;2023-02-14T07:51:39;98881.88;;;3.98;100.00
3796;BME280;1913;50.660;7.834;2023-02-14T07:54:05;98875.16;;;4.06;100.00
3796;BME280;1913;50.660;7.834;2023-02-14T07:56:30;98881.97;;;4.30;100.00
3796;BME280;1913;50.660;7.834;2023-02-14T07:58:56;98875.69;;;4.44;100.00
3796;BME280;1913;50.660;7.834;2023-02-14T08:01:21;98874.56;;;4.57;100.00
3796;BME280;1913;50.660;7.834;2023-02-14T08:03:47;98883.25;;;4.79;100.00
3796;BME280;1913;50.660;7.834;2023-02-14T08:06:19;98878.53;;;5.05;100.00
3796;BME280;1913;50.660;7.834;2023-02-14T08:08:45;98881.94;;;5.17;100.00
3796;BME280;1913;50.660;7.834;2023-02-14T08:11:11;98879.97;;;5.30;100.00
3796;BME280;1913;50.660;7.834;2023-02-14T08:13:36;98891.31;;;5.50;100.00
3796;BME280;1913;50.660;7.834;2023-02-14T08:16:02;98882.97;;;5.87;100.00
3796;BME280;1913;50.660;7.834;2023-02-14T08:18:39;98886.78;;;6.04;100.00
3796;BME280;1913;50.660;7.834;2023-02-14T08:21:07;98889.00;;;6.08;100.00
3796;BME280;1913;50.660;7.834;2023-02-14T08:23:34;98889.38;;;6.34;100.00
3796;BME280;1913;50.660;7.834;2023-02-14T08:26:00;98879.50;;;6.47;100.00
3796;BME280;1913;50.660;7.834;2023-02-14T08:28:26;98887.38;;;6.67;100.00
3796;BME280;1913;50.660;7.834;2023-02-14T08:30:52;98884.22;;;7.02;100.00
3796;BME280;1913;50.660;7.834;2023-02-14T08:33:18;98891.06;;;7.42;100.00
3796;BME280;1913;50.660;7.834;2023-02-14T08:35:44;98892.00;;;7.51;100.00
3796;BME280;1913;50.660;7.834;2023-02-14T08:38:09;98892.84;;;7.88;100.00
3796;BME280;1913;50.660;7.834;2023-02-14T08:40:35;98892.84;;;8.53;100.00
3796;BME280;1913;50.660;7.834;2023-02-14T08:43:03;98900.72;;;8.89;100.00
3796;BME280;1913;50.660;7.834;2023-02-14T08:45:29;98898.53;;;9.90;100.00
3796;BME280;1913;50.660;7.834;2023-02-14T08:47:59;98898.97;;;10.12;100.00
3796;BME280;1913;50.660;7.834;2023-02-14T08:50:25;98904.88;;;10.40;100.00
3796;BME280;1913;50.660;7.834;2023-02-14T08:52:50;98906.44;;;10.91;100.00
3796;BME280;1913;50.660;7.834;2023-02-14T08:55:16;98910.09;;;11.23;92.04
3796;BME280;1913;50.660;7.834;2023-02-14T08:57:41;98905.75;;;12.04;82.51
3796;BME280;1913;50.660;7.834;2023-02-14T09:00:07;98901.84;;;11.75;81.35
3796;BME280;1913;50.660;7.834;2023-02-14T09:02:34;98901.03;;;12.30;78.28
3796;BME280;1913;50.660;7.834;2023-02-14T09:04:59;98892.59;;;11.79;80.39
3796;BME280;1913;50.660;7.834;2023-02-14T09:07:25;98900.03;;;12.62;74.94
3796;BME280;1913;50.660;7.834;2023-02-14T09:09:50;98900.53;;;13.12;68.48
3796;BME280;1913;50.660;7.834;2023-02-14T09:12:16;98890.91;;;12.73;66.99
3796;BME280;1913;50.660;7.834;2023-02-14T09:14:43;98893.19;;;12.76;65.55
3796;BME280;1913;50.660;7.834;2023-02-14T09:17:10;98902.53;;;13.56;63.41
3796;BME280;1913;50.660;7.834;2023-02-14T09:19:36;98905.47;;;13.90;60.51
3796;BME280;1913;50.660;7.834;2023-02-14T09:22:03;98905.56;;;14.27;58.30
3796;BME280;1913;50.660;7.834;2023-02-14T09:24:30;98906.84;;;14.31;55.93
3796;BME280;1913;50.660;7.834;2023-02-14T09:26:56;98904.75;;;13.44;58.08
3796;BME280;1913;50.660;7.834;2023-02-14T09:29:25;98912.19;;;13.26;59.28
3796;BME280;1913;50.660;7.834;2023-02-14T09:31:55;98906.38;;;12.76;58.96
3796;BME280;1913;50.660;7.834;2023-02-14T09:34:21;98907.00;;;12.24;60.73
3796;BME280;1913;50.660;7.834;2023-02-14T09:37:05;98906.66;;;12.58;61.92
3796;BME280;1913;50.660;7.834;2023-02-14T09:39:49;98907.72;;;12.41;62.42
3796;BME280;1913;50.660;7.834;2023-02-14T09:42:33;98911.25;;;11.53;66.08
3796;BME280;1913;50.660;7.834;2023-02-14T09:45:13;98911.88;;;11.55;68.84
3796;BME280;1913;50.660;7.834;2023-02-14T09:47:56;98907.97;;;12.23;64.97
3796;BME280;1913;50.660;7.834;2023-02-14T09:52:56;98912.41;;;12.62;61.29
3796;BME280;1913;50.660;7.834;2023-02-14T09:55:26;98911.16;;;12.50;62.38
3796;BME280;1913;50.660;7.834;2023-02-14T10:03:39;98909.28;;;12.89;58.91
3796;BME280;1913;50.660;7.834;2023-02-14T10:06:11;98898.66;;;13.44;55.47
3796;BME280;1913;50.660;7.834;2023-02-14T10:08:54;98902.25;;;12.82;58.77
3796;BME280;1913;50.660;7.834;2023-02-14T10:11:26;98912.50;;;13.00;59.49
3796;BME280;1913;50.660;7.834;2023-02-14T10:14:00;98904.75;;;12.98;59.41
3796;BME280;1913;50.660;7.834;2023-02-14T10:16:36;98901.97;;;13.00;58.69
3796;BME280;1913;50.660;7.834;2023-02-14T10:19:21;98892.75;;;13.41;54.91
3796;BME280;1913;50.660;7.834;2023-02-14T10:21:52;98906.63;;;13.58;53.85
3796;BME280;1913;50.660;7.834;2023-02-14T10:26:48;98900.09;;;14.79;51.15
3796;BME280;1913;50.660;7.834;2023-02-14T10:29:16;98896.03;;;14.62;51.52
3796;BME280;1913;50.660;7.834;2023-02-14T10:31:53;98901.97;;;14.49;52.31
3796;BME280;1913;50.660;7.834;2023-02-14T10:42:56;98890.44;;;11.91;61.28
3796;BME280;1913;50.660;7.834;2023-02-14T10:45:41;98893.28;;;11.89;68.44
3796;BME280;1913;50.660;7.834;2023-02-14T10:54:16;98870.59;;;12.51;65.94
3796;BME280;1913;50.660;7.834;2023-02-14T10:56:48;98870.22;;;13.08;62.10
3796;BME280;1913;50.660;7.834;2023-02-14T10:59:26;98869.44;;;12.84;60.13
3796;BME280;1913;50.660;7.834;2023-02-14T11:01:55;98870.53;;;12.90;58.76
3796;BME280;1913;50.660;7.834;2023-02-14T11:04:23;98866.84;;;12.45;59.18
3796;BME280;1913;50.660;7.834;2023-02-14T11:06:49;98860.72;;;12.53;63.04
3796;BME280;1913;50.660;7.834;2023-02-14T11:09:16;98853.56;;;12.38;60.37
3796;BME280;1913;50.660;7.834;2023-02-14T11:11:50;98859.84;;;12.29;62.45
3796;BME280;1913;50.660;7.834;2023-02-14T11:16:42;98851.66;;;12.24;63.41
3796;BME280;1913;50.660;7.834;2023-02-14T11:19:18;98843.28;;;13.12;66.29
3796;BME280;1913;50.660;7.834;2023-02-14T11:21:46;98848.13;;;13.47;59.01
3796;BME280;1913;50.660;7.834;2023-02-14T11:24:30;98847.31;;;13.23;58.11
3796;BME280;1913;50.660;7.834;2023-02-14T11:29:42;98837.09;;;13.28;57.23
3796;BME280;1913;50.660;7.834;2023-02-14T11:32:29;98834.13;;;13.46;58.37
3796;BME280;1913;50.660;7.834;2023-02-14T11:34:59;98839.41;;;13.61;57.10
3796;BME280;1913;50.660;7.834;2023-02-14T11:37:31;98842.69;;;13.63;57.12
3796;BME280;1913;50.660;7.834;2023-02-14T11:40:00;98827.22;;;13.75;55.75
3796;BME280;1913;50.660;7.834;2023-02-14T11:42:44;98836.66;;;13.69;56.31
3796;BME280;1913;50.660;7.834;2023-02-14T11:50:40;98820.38;;;13.51;57.51
3796;BME280;1913;50.660;7.834;2023-02-14T11:53:12;98817.63;;;13.59;60.65
3796;BME280;1913;50.660;7.834;2023-02-14T11:55:50;98806.25;;;13.58;55.25
3796;BME280;1913;50.660;7.834;2023-02-14T12:01:36;98804.78;;;13.85;56.22
3796;BME280;1913;50.660;7.834;2023-02-14T12:04:12;98801.16;;;13.27;56.22
3796;BME280;1913;50.660;7.834;2023-02-14T12:06:39;98803.53;;;13.14;54.87
3796;BME280;1913;50.660;7.834;2023-02-14T12:11:57;98800.66;;;14.12;53.60
3796;BME280;1913;50.660;7.834;2023-02-14T12:14:26;98801.97;;;13.43;56.36
3796;BME280;1913;50.660;7.834;2023-02-14T12:20:11;98793.50;;;13.77;55.31
3796;BME280;1913;50.660;7.834;2023-02-14T12:22:45;98788.59;;;13.74;55.26
3796;BME280;1913;50.660;7.834;2023-02-14T12:25:39;98782.75;;;13.78;55.24
3796;BME280;1913;50.660;7.834;2023-02-14T12:28:12;98776.38;;;13.58;55.28
3796;BME280;1913;50.660;7.834;2023-02-14T12:30:40;98771.75;;;13.60;55.41
3796;BME280;1913;50.660;7.834;2023-02-14T12:33:24;98762.16;;;13.59;58.26
3796;BME280;1913;50.660;7.834;2023-02-14T13:06:37;98731.72;;;12.66;62.41
3796;BME280;1913;50.660;7.834;2023-02-14T13:12:27;98724.97;;;13.01;60.40
3796;BME280;1913;50.660;7.834;2023-02-14T13:15:29;98722.63;;;13.06;59.31
3796;BME280;1913;50.660;7.834;2023-02-14T13:18:04;98731.13;;;12.79;61.73
3796;BME280;1913;50.660;7.834;2023-02-14T13:20:47;98731.13;;;12.79;58.75
3796;BME280;1913;50.660;7.834;2023-02-14T13:23:28;98730.13;;;12.94;60.48
3796;BME280;1913;50.660;7.834;2023-02-14T13:25:59;98722.53;;;13.00;61.09
3796;BME280;1913;50.660;7.834;2023-02-14T13:28:29;98724.44;;;13.21;59.64
3796;BME280;1913;50.660;7.834;2023-02-14T13:30:56;98721.63;;;13.07;57.87
3796;BME280;1913;50.660;7.834;2023-02-14T13:33:32;98717.59;;;12.97;58.14
3796;BME280;1913;50.660;7.834;2023-02-14T13:36:09;98709.91;;;12.72;59.45
3796;BME280;1913;50.660;7.834;2023-02-14T13:38:46;98712.56;;;12.87;58.57
3796;BME280;1913;50.660;7.834;2023-02-14T13:41:13;98707.81;;;12.67;59.72
3796;BME280;1913;50.660;7.834;2023-02-14T13:44:00;98705.84;;;12.46;62.42
3796;BME280;1913;50.660;7.834;2023-02-14T13:52:05;98690.59;;;12.57;60.38
3796;BME280;1913;50.660;7.834;2023-02-14T13:54:43;98693.44;;;12.32;58.49
3796;BME280;1913;50.660;7.834;2023-02-14T13:57:36;98692.91;;;12.14;60.01
3796;BME280;1913;50.660;7.834;2023-02-14T14:02:49;98686.16;;;12.34;59.69
3796;BME280;1913;50.660;7.834;2023-02-14T14:11:12;98685.19;;;12.35;58.26
3796;BME280;1913;50.660;7.834;2023-02-14T14:21:43;98682.38;;;12.89;55.87
3796;BME280;1913;50.660;7.834;2023-02-14T14:26:46;98678.56;;;12.39;56.99
3796;BME280;1913;50.660;7.834;2023-02-14T14:29:23;98674.13;;;12.17;57.10
3796;BME280;1913;50.660;7.834;2023-02-14T14:31:49;98674.41;;;12.22;58.65
3796;BME280;1913;50.660;7.834;2023-02-14T14:34:25;98665.81;;;11.74;60.56
3796;BME280;1913;50.660;7.834;2023-02-14T14:37:02;98657.47;;;12.16;57.17
3796;BME280;1913;50.660;7.834;2023-02-14T14:39:31;98659.59;;;11.98;58.86
3796;BME280;1913;50.660;7.834;2023-02-14T14:42:08;98663.63;;;12.09;59.55
3796;BME280;1913;50.660;7.834;2023-02-14T14:47:21;98647.03;;;11.46;59.87
3796;BME280;1913;50.660;7.834;2023-02-14T14:49:50;98654.13;;;11.37;60.36
3796;BME280;1913;50.660;7.834;2023-02-14T14:52:44;98648.56;;;11.32;61.62
3796;BME280;1913;50.660;7.834;2023-02-14T14:55:23;98641.63;;;11.00;62.18
3796;BME280;1913;50.660;7.834;2023-02-14T14:57:52;98647.59;;;10.69;65.30
3796;BME280;1913;50.660;7.834;2023-02-14T15:00:22;98639.06;;;10.02;70.72
3796;BME280;1913;50.660;7.834;2023-02-14T15:05:32;98640.56;;;9.29;81.66
3796;BME280;1913;50.660;7.834;2023-02-14T15:08:14;98638.19;;;9.10;85.57
3796;BME280;1913;50.660;7.834;2023-02-14T15:10:40;98634.09;;;9.07;87.43
3796;BME280;1913;50.660;7.834;2023-02-14T15:13:10;98632.28;;;9.08;90.98
3796;BME280;1913;50.660;7.834;2023-02-14T15:16:08;98631.72;;;9.30;87.41
3796;BME280;1913;50.660;7.834;2023-02-14T15:18:34;98630.50;;;9.17;87.29
3796;BME280;1913;50.660;7.834;2023-02-14T15:21:01;98630.81;;;9.14;88.76
3796;BME280;1913;50.660;7.834;2023-02-14T15:23:27;98628.75;;;8.91;92.31
3796;BME280;1913;50.660;7.834;2023-02-14T15:25:53;98632.13;;;8.75;94.54
3796;BME280;1913;50.660;7.834;2023-02-14T15:28:27;98623.94;;;8.52;97.60
3796;BME280;1913;50.660;7.834;2023-02-14T15:30:58;98625.69;;;8.44;100.00
3796;BME280;1913;50.660;7.834;2023-02-14T15:33:24;98624.75;;;8.09;100.00
3796;BME280;1913;50.660;7.834;2023-02-14T15:35:51;98625.50;;;8.01;100.00
3796;BME280;1913;50.660;7.834;2023-02-14T15:38:19;98625.81;;;7.80;100.00
3796;BME280;1913;50.660;7.834;2023-02-14T15:40:46;98629.31;;;7.71;100.00
3796;BME280;1913;50.660;7.834;2023-02-14T15:43:35;98622.78;;;7.57;100.00
3796;BME280;1913;50.660;7.834;2023-02-14T15:48:52;98628.34;;;6.99;100.00
3796;BME280;1913;50.660;7.834;2023-02-14T15:51:37;98619.06;;;6.87;100.00
3796;BME280;1913;50.660;7.834;2023-02-14T15:54:37;98620.53;;;6.52;100.00
3796;BME280;1913;50.660;7.834;2023-02-14T15:57:15;98624.97;;;6.32;100.00
3796;BME280;1913;50.660;7.834;2023-02-14T15:59:43;98624.97;;;6.22;100.00
3796;BME280;1913;50.660;7.834;2023-02-14T16:02:28;98626.09;;;6.10;100.00
3796;BME280;1913;50.660;7.834;2023-02-14T16:07:39;98625.78;;;5.45;100.00
3796;BME280;1913;50.660;7.834;2023-02-14T16:12:52;98625.41;;;5.10;100.00
3796;BME280;1913;50.660;7.834;2023-02-14T16:15:21;98629.75;;;4.99;100.00
3796;BME280;1913;50.660;7.834;2023-02-14T16:17:47;98624.94;;;4.64;100.00
3796;BME280;1913;50.660;7.834;2023-02-14T16:20:37;98627.22;;;4.57;100.00
3796;BME280;1913;50.660;7.834;2023-02-14T16:23:23;98629.16;;;4.35;100.00
3796;BME280;1913;50.660;7.834;2023-02-14T16:25:49;98625.09;;;4.21;100.00
3796;BME280;1913;50.660;7.834;2023-02-14T16:28:16;98626.53;;;3.93;100.00